Time;durP1;ratioP1;P1;durP2;ratioP2;P2;SDS_P1;SDS_P2;PMS_P1;PMS_P2;Temp;Humidity;BMP_temperature;BMP_pressure;BME280_temperature;BME280_humidity;BME280_pressure;Samples;Min_cycle;Max_cycle;Signal;HPM_P1;HPM_P2
2022/09/17 00:02:13;;;;;;;7.03;4.03;;;;;7.50;93679.00;;;;7396225;19;20584;-78
2022/09/17 00:04:41;;;;;;;6.60;4.13;;;;;7.40;93672.00;;;;7397463;19;20595;-79
2022/09/17 00:07:15;;;;;;;4.47;4.07;;;;;7.60;93675.00;;;;7400717;19;20342;-79
2022/09/17 00:09:43;;;;;;;5.53;4.00;;;;;7.50;93669.00;;;;7399715;19;20129;-78
2022/09/17 00:12:10;;;;;;;5.40;3.63;;;;;7.60;93666.00;;;;7399824;19;20133;-77
2022/09/17 00:14:51;;;;;;;10.03;4.57;;;;;7.50;93671.00;;;;7396880;19;20168;-78
2022/09/17 00:17:20;;;;;;;5.47;3.90;;;;;7.50;93665.00;;;;7396561;19;20594;-78
2022/09/17 00:19:54;;;;;;;7.50;3.97;;;;;7.40;93656.00;;;;7395725;19;20163;-78
2022/09/17 00:22:23;;;;;;;5.63;3.77;;;;;7.40;93659.00;;;;7395969;19;20178;-78
2022/09/17 00:24:51;;;;;;;7.43;3.80;;;;;7.40;93656.00;;;;7396944;19;20472;-78
2022/09/17 00:27:25;;;;;;;5.03;3.60;;;;;7.50;93670.00;;;;7396384;19;20164;-78
2022/09/17 00:29:52;;;;;;;5.80;3.83;;;;;7.40;93670.00;;;;7397701;19;20137;-78
2022/09/17 00:32:20;;;;;;;6.20;3.50;;;;;7.30;93674.00;;;;7397317;19;20132;-78
2022/09/17 00:34:54;;;;;;;6.03;2.90;;;;;7.40;93663.00;;;;7396904;19;20125;-78
2022/09/17 00:37:22;;;;;;;3.80;3.43;;;;;7.40;93679.00;;;;7393662;19;20140;-78
2022/09/17 00:39:49;;;;;;;4.00;3.37;;;;;7.30;93675.00;;;;7394736;19;20133;-77
2022/09/17 00:42:23;;;;;;;6.40;3.13;;;;;7.50;93681.00;;;;7395720;19;20133;-78
2022/09/17 00:44:53;;;;;;;5.10;3.27;;;;;7.30;93685.00;;;;7395483;19;20133;-78
2022/09/17 00:47:41;;;;;;;2.87;2.67;;;;;7.40;93680.00;;;;7396438;19;20475;-78
2022/09/17 00:50:40;;;;;;;6.60;2.60;;;;;7.30;93687.00;;;;7393702;19;20136;-77
2022/09/17 00:53:12;;;;;;;5.07;2.50;;;;;7.60;93673.00;;;;7395453;19;20129;-78
2022/09/17 00:56:20;;;;;;;9.57;2.87;;;;;7.50;93688.00;;;;7396021;19;20147;-79
2022/09/17 00:58:53;;;;;;;3.97;2.40;;;;;7.50;93686.00;;;;7394672;19;20158;-78
2022/09/17 01:01:30;;;;;;;4.23;2.50;;;;;7.40;93695.00;;;;7397441;19;20152;-79
2022/09/17 01:03:58;;;;;;;2.67;2.47;;;;;7.30;93690.00;;;;7392557;19;20155;-79
2022/09/17 01:06:50;;;;;;;5.07;2.60;;;;;7.40;93696.00;;;;7395936;19;20140;-78
2022/09/17 01:10:05;;;;;;;3.93;2.10;;;;;7.50;93698.00;;;;7397266;19;20141;-78
2022/09/17 01:12:44;;;;;;;7.30;2.80;;;;;7.40;93702.00;;;;7397563;19;20615;-77
2022/09/17 01:15:41;;;;;;;5.00;2.20;;;;;7.40;93703.00;;;;7394385;19;20125;-77
2022/09/17 01:18:21;;;;;;;6.83;2.00;;;;;7.40;93701.00;;;;7394712;19;20125;-76
2022/09/17 01:21:17;;;;;;;4.60;2.13;;;;;7.40;93701.00;;;;7393161;19;20133;-78
2022/09/17 01:24:13;;;;;;;4.23;1.93;;;;;7.30;93703.00;;;;7393031;19;20603;-78
2022/09/17 01:27:15;;;;;;;4.77;2.10;;;;;7.40;93699.00;;;;7394111;19;20137;-78
2022/09/17 01:30:01;;;;;;;4.23;1.90;;;;;7.40;93702.00;;;;7395801;19;20594;-78
2022/09/17 01:32:51;;;;;;;9.47;2.17;;;;;7.40;93701.00;;;;7391568;19;20141;-79
2022/09/17 01:35:50;;;;;;;4.93;2.30;;;;;7.30;93701.00;;;;7391702;19;20144;-79
2022/09/17 01:38:43;;;;;;;5.70;1.70;;;;;7.30;93694.00;;;;7390139;19;20140;-78
2022/09/17 01:41:22;;;;;;;6.40;2.10;;;;;7.20;93704.00;;;;7390706;19;20149;-78
2022/09/17 01:44:41;;;;;;;3.93;2.23;;;;;7.30;93708.00;;;;7390800;19;20598;-78
2022/09/17 01:47:23;;;;;;;5.73;2.00;;;;;7.20;93701.00;;;;7390426;19;20623;-78
2022/09/17 01:50:07;;;;;;;5.03;2.10;;;;;7.30;93710.00;;;;7392469;19;20125;-78
2022/09/17 01:52:37;;;;;;;7.77;2.00;;;;;7.30;93716.00;;;;7391901;19;20140;-78
2022/09/17 01:55:14;;;;;;;5.07;2.40;;;;;7.40;93708.00;;;;7393624;19;20133;-77
2022/09/17 01:57:52;;;;;;;9.10;2.40;;;;;7.40;93699.00;;;;7391200;19;20637;-78
2022/09/17 02:00:26;;;;;;;7.47;2.50;;;;;7.30;93699.00;;;;7391168;19;20448;-79
2022/09/17 02:03:14;;;;;;;4.73;2.20;;;;;7.40;93701.00;;;;7393622;19;20164;-78
2022/09/17 02:05:56;;;;;;;6.83;2.33;;;;;7.20;93701.00;;;;7391738;19;20160;-78
2022/09/17 02:08:43;;;;;;;5.53;2.43;;;;;7.40;93702.00;;;;7395024;19;20131;-78
2022/09/17 02:11:18;;;;;;;5.33;2.40;;;;;7.30;93708.00;;;;7393550;19;20133;-78
2022/09/17 02:14:05;;;;;;;5.23;2.07;;;;;7.20;93689.00;;;;7389961;19;20160;-78
2022/09/17 02:16:47;;;;;;;6.67;2.20;;;;;7.20;93701.00;;;;7393577;19;20152;-77
2022/09/17 02:19:32;;;;;;;7.43;2.30;;;;;7.10;93699.00;;;;7398816;19;20128;-78
2022/09/17 02:22:31;;;;;;;3.93;1.90;;;;;7.00;93695.00;;;;7398984;19;20133;-76
2022/09/17 02:25:05;;;;;;;5.97;2.00;;;;;7.00;93693.00;;;;7399683;19;20164;-77
2022/09/17 02:27:56;;;;;;;6.63;2.10;;;;;7.10;93693.00;;;;7399377;19;20128;-77
2022/09/17 02:30:24;;;;;;;7.23;2.10;;;;;7.10;93692.00;;;;7397733;19;20140;-79
2022/09/17 02:33:00;;;;;;;4.67;1.83;;;;;6.90;93686.00;;;;7398077;19;20131;-78
2022/09/17 02:35:32;;;;;;;7.10;2.07;;;;;6.90;93697.00;;;;7397674;19;20174;-78
2022/09/17 02:38:06;;;;;;;9.43;2.00;;;;;7.00;93689.00;;;;7396359;19;20155;-77
2022/09/17 02:40:48;;;;;;;8.73;1.70;;;;;7.00;93701.00;;;;7396494;19;20143;-79
2022/09/17 02:43:46;;;;;;;5.37;1.70;;;;;7.10;93692.00;;;;7398674;19;20117;-79
2022/09/17 02:46:47;;;;;;;6.67;2.10;;;;;7.10;93682.00;;;;7398479;19;20757;-77
2022/09/17 02:49:43;;;;;;;3.83;1.83;;;;;7.00;93686.00;;;;7398002;19;20144;-78
2022/09/17 02:52:20;;;;;;;12.80;2.07;;;;;6.90;93684.00;;;;7397022;19;20141;-78
2022/09/17 02:55:15;;;;;;;4.80;1.80;;;;;6.80;93688.00;;;;7397273;19;20505;-77
2022/09/17 02:57:55;;;;;;;3.33;1.87;;;;;6.80;93683.00;;;;7397731;19;20718;-77
2022/09/17 03:00:32;;;;;;;8.60;2.23;;;;;6.80;93690.00;;;;7398596;19;20141;-78
2022/09/17 03:03:32;;;;;;;8.97;2.13;;;;;6.80;93690.00;;;;7400537;19;20148;-78
2022/09/17 03:06:07;;;;;;;7.37;2.27;;;;;6.70;93693.00;;;;7400788;19;20140;-77
2022/09/17 03:08:41;;;;;;;7.63;2.73;;;;;6.80;93692.00;;;;7402281;19;20145;-79
2022/09/17 03:11:19;;;;;;;6.17;2.17;;;;;6.70;93694.00;;;;7398227;19;20131;-79
2022/09/17 03:14:02;;;;;;;6.63;2.10;;;;;6.70;93694.00;;;;7396470;19;20145;-77
2022/09/17 03:16:38;;;;;;;9.90;2.60;;;;;6.70;93685.00;;;;7401073;19;20144;-77
2022/09/17 03:19:07;;;;;;;12.77;2.70;;;;;6.60;93685.00;;;;7395488;19;20615;-79
2022/09/17 03:21:34;;;;;;;13.97;3.03;;;;;6.70;93693.00;;;;7397494;19;20129;-79
2022/09/17 03:24:10;;;;;;;9.37;3.50;;;;;6.80;93688.00;;;;7399011;19;20125;-77
2022/09/17 03:26:38;;;;;;;10.13;2.73;;;;;6.60;93686.00;;;;7396682;19;20141;-78
2022/09/17 03:29:06;;;;;;;6.63;2.57;;;;;6.60;93685.00;;;;7396503;19;20997;-78
2022/09/17 03:31:41;;;;;;;6.97;3.37;;;;;6.60;93691.00;;;;7396100;19;20121;-77
2022/09/17 03:34:09;;;;;;;6.97;2.93;;;;;6.60;93700.00;;;;7396952;19;20129;-79
2022/09/17 03:36:37;;;;;;;6.80;2.60;;;;;6.50;93698.00;;;;7395195;19;20137;-79
2022/09/17 03:39:12;;;;;;;9.40;3.23;;;;;6.40;93703.00;;;;7394868;19;20603;-77
2022/09/17 03:41:39;;;;;;;6.30;2.50;;;;;6.50;93701.00;;;;7398433;19;20134;-77
2022/09/17 03:44:08;;;;;;;6.60;2.90;;;;;6.70;93704.00;;;;7395064;19;20511;-78
2022/09/17 03:46:42;;;;;;;5.67;2.87;;;;;6.50;93708.00;;;;7398423;19;20153;-78
2022/09/17 03:49:09;;;;;;;8.10;2.80;;;;;6.60;93715.00;;;;7398571;19;20161;-78
2022/09/17 03:51:40;;;;;;;6.07;2.70;;;;;6.70;93712.00;;;;7399680;19;20522;-80
2022/09/17 03:54:17;;;;;;;7.53;3.17;;;;;6.60;93717.00;;;;7395637;19;20168;-77
2022/09/17 03:56:46;;;;;;;14.67;2.87;;;;;6.60;93709.00;;;;7397805;19;20655;-78
2022/09/17 03:59:14;;;;;;;6.17;2.93;;;;;6.60;93717.00;;;;7394831;19;20148;-80
2022/09/17 04:01:48;;;;;;;8.83;2.90;;;;;6.70;93711.00;;;;7398076;19;20460;-78
2022/09/17 04:04:16;;;;;;;6.40;3.10;;;;;6.60;93712.00;;;;7396818;19;20158;-77
2022/09/17 04:06:43;;;;;;;8.37;3.50;;;;;6.70;93718.00;;;;7399283;19;20128;-77
2022/09/17 04:09:17;;;;;;;5.87;3.27;;;;;6.80;93709.00;;;;7398531;19;20131;-77
2022/09/17 04:11:46;;;;;;;5.80;3.00;;;;;6.80;93714.00;;;;7401031;19;20196;-79
2022/09/17 04:14:15;;;;;;;6.53;3.60;;;;;6.70;93704.00;;;;7394842;19;20192;-79
2022/09/17 04:16:49;;;;;;;7.07;3.27;;;;;6.80;93712.00;;;;7401721;19;20124;-80
2022/09/17 04:19:17;;;;;;;9.67;3.47;;;;;6.60;93701.00;;;;7394090;19;20125;-80
2022/09/17 04:21:44;;;;;;;8.10;2.73;;;;;6.60;93711.00;;;;7396701;19;20494;-79
2022/09/17 04:24:19;;;;;;;5.23;2.70;;;;;6.60;93709.00;;;;7397301;19;20599;-79
2022/09/17 04:26:46;;;;;;;7.07;3.87;;;;;6.70;93695.00;;;;7395355;19;20145;-80
2022/09/17 04:29:14;;;;;;;9.00;3.77;;;;;6.80;93702.00;;;;7396162;19;20168;-79
2022/09/17 04:31:48;;;;;;;7.00;3.23;;;;;6.80;93706.00;;;;7390674;19;20132;-77
2022/09/17 04:34:17;;;;;;;10.17;3.97;;;;;6.70;93697.00;;;;7388570;19;20179;-78
2022/09/17 04:36:45;;;;;;;5.30;3.27;;;;;6.60;93708.00;;;;7388971;19;20136;-78
2022/09/17 04:39:18;;;;;;;6.90;3.17;;;;;6.60;93703.00;;;;7387841;19;20158;-79
2022/09/17 04:41:46;;;;;;;5.50;3.30;;;;;6.70;93705.00;;;;7389044;19;20164;-78
2022/09/17 04:44:14;;;;;;;9.07;3.33;;;;;6.50;93706.00;;;;7389344;19;20144;-79
2022/09/17 04:46:47;;;;;;;7.20;3.23;;;;;6.70;93712.00;;;;7390480;19;20150;-79
2022/09/17 04:49:18;;;;;;;11.03;3.60;;;;;6.50;93702.00;;;;7392863;19;20164;-79
2022/09/17 04:51:45;;;;;;;6.23;3.13;;;;;6.60;93719.00;;;;7390553;19;20133;-80
2022/09/17 04:54:19;;;;;;;10.43;3.57;;;;;6.60;93726.00;;;;7390864;19;20150;-77
2022/09/17 04:56:47;;;;;;;8.90;3.40;;;;;6.60;93729.00;;;;7390323;19;20145;-77
2022/09/17 04:59:14;;;;;;;5.50;3.07;;;;;6.60;93734.00;;;;7388008;19;20144;-80
2022/09/17 05:01:48;;;;;;;9.70;3.13;;;;;6.50;93730.00;;;;7388710;19;20133;-78
2022/09/17 05:04:16;;;;;;;10.40;3.10;;;;;6.50;93740.00;;;;7389687;19;20151;-78
2022/09/17 05:06:43;;;;;;;10.87;3.43;;;;;6.60;93743.00;;;;7388536;19;20133;-80
2022/09/17 05:09:17;;;;;;;6.93;3.33;;;;;6.70;93743.00;;;;7389172;19;20151;-78
2022/09/17 05:11:45;;;;;;;8.87;3.20;;;;;6.60;93748.00;;;;7390548;19;20149;-79
2022/09/17 05:14:13;;;;;;;9.77;3.20;;;;;6.70;93742.00;;;;7388785;19;20156;-78
2022/09/17 05:16:46;;;;;;;8.30;3.17;;;;;6.60;93750.00;;;;7392843;19;20141;-79
2022/09/17 05:19:14;;;;;;;4.80;3.53;;;;;6.80;93750.00;;;;7389276;19;20145;-78
2022/09/17 05:21:41;;;;;;;10.60;3.50;;;;;6.60;93739.00;;;;7388459;19;20129;-78
2022/09/17 05:24:15;;;;;;;7.60;3.77;;;;;6.70;93753.00;;;;7388133;19;20136;-78
2022/09/17 05:26:43;;;;;;;6.27;2.80;;;;;6.60;93751.00;;;;7389879;19;20155;-78
2022/09/17 05:29:10;;;;;;;10.13;3.47;;;;;6.70;93751.00;;;;7392451;19;20587;-80
2022/09/17 05:31:45;;;;;;;4.57;2.80;;;;;6.70;93755.00;;;;7389073;19;20132;-78
2022/09/17 05:34:13;;;;;;;7.77;3.17;;;;;6.60;93753.00;;;;7388027;19;20185;-78
2022/09/17 05:36:45;;;;;;;6.23;3.10;;;;;6.80;93747.00;;;;7392507;19;20222;-80
2022/09/17 05:39:24;;;;;;;8.43;3.20;;;;;6.80;93745.00;;;;7393532;19;20484;-80
2022/09/17 05:41:54;;;;;;;10.27;3.67;;;;;6.80;93743.00;;;;7395310;19;20162;-78
2022/09/17 05:44:32;;;;;;;8.20;3.70;;;;;6.80;93750.00;;;;7391912;19;20203;-79
2022/09/17 05:47:01;;;;;;;7.10;4.00;;;;;6.90;93747.00;;;;7390727;19;20571;-78
2022/09/17 05:49:28;;;;;;;7.07;3.33;;;;;6.80;93742.00;;;;7393024;19;20133;-79
2022/09/17 05:52:02;;;;;;;4.77;3.00;;;;;7.00;93747.00;;;;7390317;19;20552;-78
2022/09/17 05:54:47;;;;;;;7.10;3.03;;;;;6.90;93751.00;;;;7390619;19;20232;-79
2022/09/17 05:57:22;;;;;;;9.07;3.20;;;;;6.90;93744.00;;;;7396910;19;20147;-81
2022/09/17 05:59:52;;;;;;;6.13;3.00;;;;;6.90;93756.00;;;;7397324;19;20125;-80
2022/09/17 06:02:19;;;;;;;5.03;3.00;;;;;6.80;93752.00;;;;7392821;19;20137;-79
2022/09/17 06:04:54;;;;;;;9.20;3.80;;;;;7.00;93762.00;;;;7395916;19;20156;-79
2022/09/17 06:07:21;;;;;;;7.73;3.60;;;;;6.80;93758.00;;;;7396985;19;20133;-79
2022/09/17 06:09:49;;;;;;;4.33;2.97;;;;;6.80;93764.00;;;;7391429;19;20228;-79
2022/09/17 06:12:23;;;;;;;7.30;3.77;;;;;6.90;93781.00;;;;7391142;19;20635;-79
2022/09/17 06:14:57;;;;;;;9.23;3.50;;;;;6.70;93786.00;;;;7391421;19;20168;-79
2022/09/17 06:17:35;;;;;;;7.57;3.53;;;;;6.60;93784.00;;;;7391943;19;20128;-81
2022/09/17 06:20:05;;;;;;;9.33;4.10;;;;;6.60;93779.00;;;;7388757;19;20205;-80
2022/09/17 06:22:39;;;;;;;9.73;3.80;;;;;6.50;93781.00;;;;7392298;19;20129;-77
2022/09/17 06:25:07;;;;;;;9.90;3.80;;;;;6.50;93795.00;;;;7392571;19;20117;-80
2022/09/17 06:27:35;;;;;;;7.20;3.00;;;;;6.50;93789.00;;;;7392149;19;20145;-79
2022/09/17 06:30:10;;;;;;;7.77;3.50;;;;;6.60;93790.00;;;;7392834;19;20136;-80
2022/09/17 06:32:38;;;;;;;10.57;4.20;;;;;6.50;93793.00;;;;7396082;19;20129;-78
2022/09/17 06:35:07;;;;;;;7.63;3.83;;;;;6.60;93789.00;;;;7395527;19;20133;-79
2022/09/17 06:37:40;;;;;;;4.43;3.57;;;;;6.50;93798.00;;;;7394606;19;20148;-79
2022/09/17 06:40:08;;;;;;;5.20;3.83;;;;;6.40;93800.00;;;;7396583;19;20483;-78
2022/09/17 06:42:39;;;;;;;6.00;3.33;;;;;6.40;93805.00;;;;7407989;19;20204;-79
2022/09/17 06:45:15;;;;;;;5.63;3.60;;;;;6.40;93807.00;;;;7403826;19;20168;-78
2022/09/17 06:47:43;;;;;;;4.40;3.40;;;;;6.30;93805.00;;;;7412662;19;20133;-80
2022/09/17 06:50:24;;;;;;;6.37;3.63;;;;;6.40;93801.00;;;;7415249;19;20137;-79
2022/09/17 06:53:09;;;;;;;5.53;3.70;;;;;6.30;93810.00;;;;7414795;19;20188;-80
2022/09/17 06:55:40;;;;;;;3.47;3.00;;;;;6.40;93810.00;;;;7417711;19;20169;-79
2022/09/17 06:58:17;;;;;;;4.87;3.33;;;;;6.40;93810.00;;;;7420515;19;20154;-77
2022/09/17 07:00:47;;;;;;;6.87;3.60;;;;;6.30;93811.00;;;;7415382;19;20149;-78
2022/09/17 07:03:19;;;;;;;2.93;2.73;;;;;6.20;93806.00;;;;7418906;19;20231;-78
2022/09/17 07:05:53;;;;;;;5.20;3.13;;;;;6.30;93824.00;;;;7414705;19;20195;-79
2022/09/17 07:08:23;;;;;;;4.23;3.00;;;;;6.30;93822.00;;;;7411240;19;20129;-78
2022/09/17 07:10:55;;;;;;;3.43;2.70;;;;;6.30;93813.00;;;;7411591;19;20200;-79
2022/09/17 07:13:36;;;;;;;4.00;2.80;;;;;6.30;93816.00;;;;7402424;19;20611;-78
2022/09/17 07:16:12;;;;;;;3.87;2.73;;;;;6.40;93822.00;;;;7402975;19;20165;-78
2022/09/17 07:18:48;;;;;;;3.13;2.83;;;;;6.20;93825.00;;;;7399011;19;20133;-79
2022/09/17 07:21:15;;;;;;;3.60;2.47;;;;;6.10;93841.00;;;;7398636;19;20145;-79
2022/09/17 07:23:51;;;;;;;5.23;3.47;;;;;6.30;93836.00;;;;7404086;19;20141;-78
2022/09/17 07:26:25;;;;;;;5.67;3.73;;;;;6.10;93841.00;;;;7410574;19;20140;-79
2022/09/17 07:28:58;;;;;;;4.00;3.60;;;;;6.20;93839.00;;;;7402902;19;20140;-79
2022/09/17 07:31:27;;;;;;;5.63;3.80;;;;;6.20;93850.00;;;;7399121;19;20695;-78
2022/09/17 07:34:02;;;;;;;9.40;4.67;;;;;6.30;93842.00;;;;7398936;19;20137;-78
2022/09/17 07:36:32;;;;;;;8.03;4.00;;;;;6.30;93842.00;;;;7398666;19;20161;-79
2022/09/17 07:39:02;;;;;;;9.60;4.67;;;;;6.50;93845.00;;;;7392790;19;20141;-78
2022/09/17 07:41:36;;;;;;;11.00;4.37;;;;;6.50;93841.00;;;;7398333;19;20141;-77
2022/09/17 07:44:06;;;;;;;9.30;4.33;;;;;6.60;93839.00;;;;7397354;19;20464;-77
2022/09/17 07:46:33;;;;;;;13.57;5.13;;;;;6.70;93836.00;;;;7397814;19;20685;-77
2022/09/17 07:49:08;;;;;;;9.63;5.20;;;;;6.70;93843.00;;;;7395957;19;20557;-77
2022/09/17 07:51:37;;;;;;;11.67;5.63;;;;;6.80;93846.00;;;;7398718;19;20500;-78
2022/09/17 07:54:07;;;;;;;9.00;6.00;;;;;6.90;93846.00;;;;7396805;19;20132;-77
2022/09/17 07:56:43;;;;;;;12.97;5.47;;;;;6.80;93854.00;;;;7398650;19;20132;-78
2022/09/17 07:59:12;;;;;;;10.73;5.83;;;;;6.80;93853.00;;;;7394961;19;20121;-77
2022/09/17 08:01:40;;;;;;;13.33;5.00;;;;;6.90;93855.00;;;;7395607;19;20610;-78
2022/09/17 08:04:14;;;;;;;11.10;5.53;;;;;7.10;93866.00;;;;7397553;19;20117;-78
2022/09/17 08:06:47;;;;;;;13.03;5.17;;;;;7.00;93853.00;;;;7398117;19;20595;-78
2022/09/17 08:09:22;;;;;;;15.23;5.67;;;;;7.20;93865.00;;;;7395871;19;20180;-78
2022/09/17 08:11:49;;;;;;;9.97;4.93;;;;;7.20;93873.00;;;;7396302;19;20614;-77
2022/09/17 08:14:23;;;;;;;12.40;4.60;;;;;7.00;93871.00;;;;7394435;19;20612;-78
2022/09/17 08:16:59;;;;;;;9.43;4.53;;;;;7.20;93867.00;;;;7394616;19;20437;-76
2022/09/17 08:19:30;;;;;;;10.87;4.30;;;;;7.50;93862.00;;;;7393472;19;20628;-77
2022/09/17 08:21:57;;;;;;;19.43;5.10;;;;;7.90;93873.00;;;;7396767;19;20133;-76
2022/09/17 08:24:31;;;;;;;11.90;5.43;;;;;7.80;93868.00;;;;7396318;19;20139;-76
2022/09/17 08:26:59;;;;;;;10.60;4.43;;;;;7.80;93878.00;;;;7395242;19;20129;-77
2022/09/17 08:29:26;;;;;;;13.50;4.07;;;;;7.70;93871.00;;;;7394086;19;20204;-78
2022/09/17 08:32:02;;;;;;;14.07;4.80;;;;;7.50;93874.00;;;;7396125;19;20179;-77
2022/09/17 08:34:30;;;;;;;10.87;4.30;;;;;7.40;93871.00;;;;7396284;19;20631;-79
2022/09/17 08:36:57;;;;;;;14.47;3.93;;;;;7.40;93874.00;;;;7392774;19;20491;-78
2022/09/17 08:39:32;;;;;;;16.10;3.80;;;;;7.40;93876.00;;;;7393240;19;20129;-79
2022/09/17 08:42:13;;;;;;;9.23;3.47;;;;;7.40;93873.00;;;;7396141;19;20147;-77
2022/09/17 08:44:47;;;;;;;10.73;4.13;;;;;7.70;93871.00;;;;7396498;19;20611;-79
2022/09/17 08:47:40;;;;;;;15.00;4.63;;;;;7.40;93888.00;;;;7393206;19;20161;-79
2022/09/17 08:50:30;;;;;;;12.40;4.30;;;;;7.40;93885.00;;;;7393374;19;20144;-78
2022/09/17 08:53:10;;;;;;;16.00;4.73;;;;;7.40;93889.00;;;;7391674;19;20133;-79
2022/09/17 08:56:00;;;;;;;12.27;4.60;;;;;7.30;93890.00;;;;7394225;19;20176;-78
2022/09/17 08:58:48;;;;;;;7.97;4.50;;;;;7.30;93889.00;;;;7396746;19;20160;-77
2022/09/17 09:01:23;;;;;;;12.33;5.00;;;;;7.40;93880.00;;;;7393941;19;20124;-79
2022/09/17 09:04:18;;;;;;;7.17;4.77;;;;;8.00;93881.00;;;;7395559;19;20525;-78
2022/09/17 09:07:03;;;;;;;10.03;4.47;;;;;8.40;93870.00;;;;7392335;19;20140;-78
2022/09/17 09:09:40;;;;;;;9.10;4.70;;;;;8.90;93874.00;;;;7393289;19;20173;-80
2022/09/17 09:12:36;;;;;;;11.57;4.67;;;;;8.80;93878.00;;;;7393452;19;20193;-78
2022/09/17 09:15:43;;;;;;;9.93;4.00;;;;;9.10;93891.00;;;;7389120;19;20600;-79
2022/09/17 09:18:32;;;;;;;10.57;3.63;;;;;8.90;93901.00;;;;7394278;19;20537;-79
2022/09/17 09:21:26;;;;;;;8.33;3.50;;;;;8.40;93892.00;;;;7389795;19;20216;-79
2022/09/17 09:24:19;;;;;;;6.50;3.20;;;;;8.60;93893.00;;;;7393489;19;20160;-78
2022/09/17 09:26:50;;;;;;;9.33;2.77;;;;;8.60;93892.00;;;;7394694;19;20463;-78
2022/09/17 09:29:34;;;;;;;8.00;3.47;;;;;8.70;93883.00;;;;7394197;19;20493;-80
2022/09/17 09:32:28;;;;;;;7.87;3.63;;;;;8.80;93893.00;;;;7396212;19;20128;-80
2022/09/17 09:35:17;;;;;;;7.83;3.60;;;;;9.40;93881.00;;;;7392344;19;20222;-81
2022/09/17 09:38:11;;;;;;;7.57;3.60;;;;;9.60;93878.00;;;;7392950;19;20138;-78
2022/09/17 09:40:54;;;;;;;7.70;3.20;;;;;9.60;93882.00;;;;7395494;19;20113;-79
2022/09/17 09:43:47;;;;;;;12.48;3.10;;;;;10.00;93883.00;;;;7394560;19;20176;-79
2022/09/17 09:47:11;;;;;;;12.05;3.58;;;;;10.90;93852.00;;;;7396658;19;20765;-78
2022/09/17 09:50:21;;;;;;;6.18;2.95;;;;;10.80;93869.00;;;;7392682;19;20164;-78
2022/09/17 09:53:45;;;;;;;4.63;2.20;;;;;10.60;93851.00;;;;7395164;19;20500;-78
2022/09/17 09:56:32;;;;;;;4.80;2.42;;;;;10.80;93881.00;;;;7394473;19;20170;-76
2022/09/17 09:59:12;;;;;;;9.50;2.40;;;;;10.30;93868.00;;;;7398601;19;20160;-78
2022/09/17 10:01:43;;;;;;;5.53;2.33;;;;;10.80;93867.00;;;;7392760;19;20137;-78
2022/09/17 10:04:20;;;;;;;2.42;2.00;;;;;11.00;93861.00;;;;7394031;19;20628;-78
2022/09/17 10:06:51;;;;;;;7.45;2.78;;;;;11.00;93857.00;;;;7394248;19;20150;-78
2022/09/17 10:09:26;;;;;;;5.40;2.28;;;;;10.90;93863.00;;;;7394264;19;20136;-77
2022/09/17 10:12:10;;;;;;;4.68;2.05;;;;;10.60;93862.00;;;;7393150;19;20168;-79
2022/09/17 10:14:52;;;;;;;8.18;2.00;;;;;11.00;93861.00;;;;7394689;19;20149;-79
2022/09/17 10:17:24;;;;;;;5.78;2.17;;;;;11.20;93867.00;;;;7384531;19;20160;-78
2022/09/17 10:20:05;;;;;;;6.78;2.17;;;;;11.70;93873.00;;;;7392140;19;20169;-77
2022/09/17 10:22:44;;;;;;;7.53;2.60;;;;;12.10;93855.00;;;;7393327;19;20521;-76
2022/09/17 10:25:30;;;;;;;5.88;1.60;;;;;11.80;93875.00;;;;7391825;19;20133;-79
2022/09/17 10:28:01;;;;;;;4.90;1.67;;;;;11.80;93868.00;;;;7392881;19;20155;-78
2022/09/17 10:30:36;;;;;;;4.03;1.83;;;;;12.00;93871.00;;;;7393246;19;20117;-77
2022/09/17 10:33:22;;;;;;;5.13;1.90;;;;;11.70;93882.00;;;;7392441;19;20152;-79
2022/09/17 10:36:01;;;;;;;5.78;1.88;;;;;11.60;93889.00;;;;7394869;19;20140;-79
2022/09/17 10:38:32;;;;;;;5.72;1.75;;;;;11.60;93894.00;;;;7396608;19;20133;-78
2022/09/17 10:41:20;;;;;;;4.20;2.00;;;;;11.30;93899.00;;;;7395633;19;20144;-78
2022/09/17 10:43:51;;;;;;;12.63;3.85;;;;;11.40;93894.00;;;;7400739;19;20147;-76
2022/09/17 10:46:29;;;;;;;5.93;1.63;;;;;11.60;93891.00;;;;7401680;19;20599;-79
2022/09/17 10:49:05;;;;;;;4.75;1.50;;;;;11.60;93902.00;;;;7399490;19;20125;-78
2022/09/17 10:51:40;;;;;;;6.43;1.70;;;;;11.10;93910.00;;;;7399141;19;20139;-79
2022/09/17 10:54:43;;;;;;;5.18;1.63;;;;;10.10;93907.00;;;;7402170;19;20507;-80
2022/09/17 10:57:37;;;;;;;6.05;1.88;;;;;10.50;93885.00;;;;7398750;19;20129;-78
2022/09/17 11:00:25;;;;;;;5.13;1.85;;;;;11.50;93892.00;;;;7400841;19;20151;-75
2022/09/17 11:03:36;;;;;;;3.78;1.88;;;;;11.70;93872.00;;;;7400973;19;20137;-80
2022/09/17 11:06:22;;;;;;;6.57;1.80;;;;;11.90;93860.00;;;;7401892;19;20132;-78
2022/09/17 11:09:21;;;;;;;3.28;1.60;;;;;12.30;93856.00;;;;7400733;19;20121;-77
2022/09/17 11:11:55;;;;;;;5.70;1.50;;;;;11.90;93859.00;;;;7403365;19;20519;-77
2022/09/17 11:14:55;;;;;;;2.97;1.42;;;;;12.40;93852.00;;;;7399518;19;20632;-79
2022/09/17 11:17:29;;;;;;;7.57;1.70;;;;;12.50;93849.00;;;;7398884;19;20133;-78
2022/09/17 11:20:15;;;;;;;5.30;1.42;;;;;12.50;93854.00;;;;7398122;19;20679;-79
2022/09/17 11:23:04;;;;;;;5.50;1.80;;;;;12.60;93846.00;;;;7397887;19;20156;-80
2022/09/17 11:25:57;;;;;;;2.55;1.00;;;;;12.80;93848.00;;;;7398987;19;20619;-77
2022/09/17 11:28:36;;;;;;;3.53;1.23;;;;;12.80;93844.00;;;;7398835;19;20144;-78
2022/09/17 11:31:23;;;;;;;3.83;1.58;;;;;13.00;93846.00;;;;7397128;19;20503;-79
2022/09/17 11:33:54;;;;;;;3.88;1.25;;;;;12.90;93843.00;;;;7400628;19;20647;-80
2022/09/17 11:37:02;;;;;;;5.10;1.60;;;;;13.00;93851.00;;;;7400840;19;20525;-80
2022/09/17 11:39:36;;;;;;;4.20;1.30;;;;;12.30;93844.00;;;;7400859;19;20483;-81
2022/09/17 11:42:19;;;;;;;2.92;1.30;;;;;13.00;93848.00;;;;7400215;19;20143;-79
2022/09/17 11:44:53;;;;;;;3.75;1.63;;;;;12.60;93860.00;;;;7398910;19;20152;-79
2022/09/17 11:47:55;;;;;;;4.40;1.50;;;;;11.90;93852.00;;;;7397543;19;20157;-78
2022/09/17 11:50:32;;;;;;;5.53;1.40;;;;;12.50;93850.00;;;;7396756;19;20156;-78
2022/09/17 11:53:27;;;;;;;4.50;1.98;;;;;12.70;93828.00;;;;7394705;19;20158;-79
2022/09/17 11:56:22;;;;;;;4.38;1.55;;;;;12.70;93824.00;;;;7397249;19;20619;-79
2022/09/17 11:59:19;;;;;;;2.33;1.17;;;;;12.70;93840.00;;;;7395051;19;20496;-80
2022/09/17 12:02:13;;;;;;;5.05;1.50;;;;;12.10;93845.00;;;;7393927;19;20162;-79
2022/09/17 12:05:01;;;;;;;7.07;1.40;;;;;11.80;93860.00;;;;7395043;19;20632;-78
2022/09/17 12:08:09;;;;;;;3.38;1.38;;;;;11.50;93854.00;;;;7395973;19;20149;-79
2022/09/17 12:10:52;;;;;;;4.40;1.60;;;;;11.00;93853.00;;;;7399526;19;20144;-80
2022/09/17 12:13:43;;;;;;;4.10;1.25;;;;;11.30;93838.00;;;;7393942;19;20583;-79
2022/09/17 12:16:30;;;;;;;3.50;1.30;;;;;11.90;93830.00;;;;7398437;19;20133;-78
2022/09/17 12:19:16;;;;;;;2.70;1.38;;;;;12.10;93826.00;;;;7394775;19;20151;-80
2022/09/17 12:22:15;;;;;;;2.38;1.15;;;;;13.00;93809.00;;;;7395061;19;20148;-78
2022/09/17 12:24:44;;;;;;;3.72;1.60;;;;;13.30;93826.00;;;;7396004;19;20140;-78
2022/09/17 12:27:25;;;;;;;3.85;1.50;;;;;12.50;93835.00;;;;7402743;19;20211;-80
2022/09/17 12:30:05;;;;;;;4.00;1.83;;;;;11.80;93849.00;;;;7411434;19;20141;-81
2022/09/17 12:32:52;;;;;;;2.60;1.23;;;;;11.00;93873.00;;;;7401384;19;20149;-79
2022/09/17 12:35:31;;;;;;;3.88;1.30;;;;;9.80;93879.00;;;;7405389;19;20142;-80
2022/09/17 12:38:34;;;;;;;4.50;1.45;;;;;8.80;93900.00;;;;7401661;19;20599;-79
2022/09/17 12:41:39;;;;;;;3.53;1.20;;;;;8.30;93911.00;;;;7394328;19;20204;-78
2022/09/17 12:45:02;;;;;;;3.35;1.25;;;;;7.80;93911.00;;;;7409111;19;20133;-80
2022/09/17 12:48:21;;;;;;;2.47;1.10;;;;;7.50;93909.00;;;;7404147;19;20160;-79
2022/09/17 12:51:06;;;;;;;3.10;1.07;;;;;7.60;93907.00;;;;7394869;19;20615;-79
2022/09/17 12:54:04;;;;;;;2.50;1.13;;;;;7.70;93913.00;;;;7403687;19;20144;-79
2022/09/17 12:56:45;;;;;;;1.80;1.27;;;;;7.80;93895.00;;;;7399769;19;20612;-80
2022/09/17 12:59:18;;;;;;;2.63;1.63;;;;;8.10;93893.00;;;;7398193;19;20148;-78
2022/09/17 13:02:11;;;;;;;1.70;1.40;;;;;8.00;93905.00;;;;7401161;19;20614;-81
2022/09/17 13:04:51;;;;;;;4.40;1.57;;;;;7.80;93894.00;;;;7397714;19;20213;-76
2022/09/17 13:07:39;;;;;;;4.63;2.37;;;;;8.30;93880.00;;;;7397835;19;20148;-78
2022/09/17 13:10:25;;;;;;;4.10;2.10;;;;;8.70;93880.00;;;;7397023;19;20137;-78
2022/09/17 13:13:24;;;;;;;3.53;1.73;;;;;9.30;93877.00;;;;7399627;19;20141;-78
2022/09/17 13:16:33;;;;;;;3.70;2.33;;;;;10.10;93878.00;;;;7396998;19;20236;-78
2022/09/17 13:19:25;;;;;;;5.60;2.20;;;;;9.80;93879.00;;;;7398987;19;20133;-77
2022/09/17 13:22:09;;;;;;;2.70;1.80;;;;;9.50;93874.00;;;;7396597;19;20170;-78
2022/09/17 13:25:01;;;;;;;3.93;1.93;;;;;9.70;93865.00;;;;7395205;19;20542;-78